createdAt,value
2018-02-18T00:01:23.802Z,38.17
2018-02-18T00:03:52.240Z,37.37
2018-02-18T00:06:19.836Z,36.07
2018-02-18T00:08:48.461Z,36.47
2018-02-18T00:11:16.326Z,35.00
2018-02-18T00:13:43.906Z,34.80
2018-02-18T00:16:11.745Z,34.70
2018-02-18T00:18:39.314Z,35.13
2018-02-18T00:21:06.879Z,35.53
2018-02-18T00:23:34.481Z,34.97
2018-02-18T00:26:03.133Z,34.43
2018-02-18T00:28:30.706Z,33.60
2018-02-18T00:30:58.281Z,35.20
2018-02-18T00:33:26.812Z,35.30
2018-02-18T00:35:54.423Z,36.60
2018-02-18T00:38:22.776Z,33.40
2018-02-18T00:40:50.369Z,35.07
2018-02-18T00:43:18.887Z,33.30
2018-02-18T00:45:46.458Z,35.93
2018-02-18T00:48:14.329Z,37.83
2018-02-18T00:50:41.902Z,34.33
2018-02-18T00:53:09.483Z,36.63
2018-02-18T00:55:38.244Z,34.90
2018-02-18T00:58:05.794Z,32.40
2018-02-18T01:00:33.374Z,34.30
2018-02-18T01:03:01.323Z,37.53
2018-02-18T01:05:28.896Z,35.70
2018-02-18T01:07:57.239Z,39.40
2018-02-18T01:10:25.235Z,38.23
2018-02-18T01:12:52.806Z,37.70
2018-02-18T01:15:21.176Z,41.20
2018-02-18T01:17:48.788Z,38.53
2018-02-18T01:20:16.374Z,38.40
2018-02-18T01:22:43.938Z,37.83
2018-02-18T01:25:11.791Z,38.60
2018-02-18T01:27:39.371Z,38.10
2018-02-18T01:30:06.962Z,37.90
2018-02-18T01:32:35.719Z,40.70
2018-02-18T01:35:04.075Z,38.30
2018-02-18T01:37:31.723Z,40.93
2018-02-18T01:39:59.402Z,40.07
2018-02-18T01:42:27.008Z,38.37
2018-02-18T01:44:55.362Z,38.70
2018-02-18T01:47:24.766Z,38.37
2018-02-18T01:49:52.356Z,42.50
2018-02-18T01:52:21.102Z,43.80
2018-02-18T01:54:48.733Z,42.60
2018-02-18T01:57:16.282Z,41.63
2018-02-18T01:59:43.850Z,38.60
2018-02-18T02:02:11.545Z,39.10
2018-02-18T02:04:39.114Z,40.23
2018-02-18T02:07:06.697Z,39.83
2018-02-18T02:09:35.081Z,40.33
2018-02-18T02:12:03.435Z,42.17
2018-02-18T02:14:31.797Z,40.50
2018-02-18T02:16:59.487Z,42.70
2018-02-18T02:19:27.825Z,39.60
2018-02-18T02:21:55.404Z,41.37
2018-02-18T02:24:23.024Z,42.03
2018-02-18T02:26:50.584Z,44.37
2018-02-18T02:29:18.150Z,42.83
2018-02-18T02:31:45.766Z,44.10
2018-02-18T02:34:14.122Z,47.60
2018-02-18T02:36:41.840Z,45.90
2018-02-18T02:39:09.488Z,49.80
2018-02-18T02:41:37.065Z,52.10
2018-02-18T02:44:04.641Z,50.97
2018-02-18T02:46:33.780Z,50.60
2018-02-18T02:49:01.386Z,51.20
2018-02-18T02:51:28.972Z,51.93
2018-02-18T02:53:56.575Z,50.77
2018-02-18T02:56:24.501Z,53.37
2018-02-18T02:58:52.171Z,49.77
2018-02-18T03:01:20.592Z,51.67
2018-02-18T03:03:48.229Z,50.27
2018-02-18T03:06:15.797Z,50.80
2018-02-18T03:08:43.373Z,49.03
2018-02-18T03:11:11.371Z,48.70
2018-02-18T03:13:38.997Z,46.53
2018-02-18T03:16:06.579Z,48.57
2018-02-18T03:18:34.196Z,47.97
2018-02-18T03:21:02.010Z,49.80
2018-02-18T03:23:29.611Z,46.63
2018-02-18T03:25:57.986Z,49.60
2018-02-18T03:28:26.369Z,47.60
2018-02-18T03:30:54.724Z,46.10
2018-02-18T03:33:22.340Z,47.20
2018-02-18T03:35:49.923Z,47.20
2018-02-18T03:38:17.489Z,48.90
2018-02-18T03:40:45.112Z,45.97
2018-02-18T03:43:12.690Z,47.30
2018-02-18T03:45:40.301Z,46.73
2018-02-18T03:48:07.919Z,47.23
2018-02-18T03:50:35.506Z,47.57
2018-02-18T03:53:06.227Z,45.33
2018-02-18T03:55:33.844Z,46.00
2018-02-18T03:58:01.459Z,43.20
2018-02-18T04:00:29.805Z,45.97
2018-02-18T04:02:57.412Z,47.70
2018-02-18T04:05:25.762Z,45.97
2018-02-18T04:07:54.118Z,47.33
2018-02-18T04:10:21.753Z,45.00
2018-02-18T04:12:49.314Z,43.37
2018-02-18T04:15:16.902Z,47.80
2018-02-18T04:17:44.519Z,46.70
2018-02-18T04:20:12.096Z,42.80
2018-02-18T04:22:39.667Z,43.60
2018-02-18T04:25:07.271Z,44.53
2018-02-18T04:27:36.527Z,44.60
2018-02-18T04:30:04.111Z,44.77
2018-02-18T04:32:32.489Z,45.57
2018-02-18T04:35:00.075Z,43.20
2018-02-18T04:37:28.424Z,41.40
2018-02-18T04:39:56.807Z,42.87
2018-02-18T04:42:24.385Z,42.10
2018-02-18T04:44:52.767Z,43.37
2018-02-18T04:47:21.582Z,43.37
2018-02-18T04:49:49.320Z,40.60
2018-02-18T04:52:16.882Z,43.30
2018-02-18T04:54:45.280Z,43.40
2018-02-18T04:57:13.745Z,42.63
2018-02-18T04:59:41.546Z,43.93
2018-02-18T05:02:09.141Z,40.90
2018-02-18T05:04:36.811Z,43.77
2018-02-18T05:07:05.533Z,44.43
2018-02-18T05:09:33.102Z,42.40
2018-02-18T05:12:00.670Z,43.70
2018-02-18T05:14:28.287Z,43.77
2018-02-18T05:16:56.205Z,44.27
2018-02-18T05:19:23.875Z,43.57
2018-02-18T05:21:51.449Z,44.53
2018-02-18T05:24:19.386Z,43.07
2018-02-18T05:26:46.960Z,43.90
2018-02-18T05:29:16.412Z,44.20
2018-02-18T05:31:44.036Z,45.33
2018-02-18T05:34:11.618Z,43.90
2018-02-18T05:36:39.967Z,42.00
2018-02-18T05:39:08.654Z,42.37
2018-02-18T05:41:36.198Z,42.67
2018-02-18T05:44:03.738Z,40.70
2018-02-18T05:46:31.355Z,44.97
2018-02-18T05:48:59.735Z,43.33
2018-02-18T05:51:28.071Z,44.40
2018-02-18T05:53:56.036Z,43.93
2018-02-18T05:56:23.616Z,43.70
2018-02-18T05:58:51.294Z,43.07
2018-02-18T06:01:19.954Z,44.00
2018-02-18T06:03:47.531Z,42.87
2018-02-18T06:06:15.870Z,43.07
2018-02-18T06:08:43.534Z,42.63
2018-02-18T06:11:11.126Z,41.73
2018-02-18T06:13:39.777Z,41.47
2018-02-18T06:16:07.346Z,40.47
2018-02-18T06:18:34.925Z,42.67
2018-02-18T06:21:03.424Z,43.10
2018-02-18T06:23:31.772Z,43.10
2018-02-18T06:25:59.487Z,42.00
2018-02-18T06:28:27.105Z,42.57
2018-02-18T06:30:54.702Z,43.67
2018-02-18T06:33:22.285Z,42.40
2018-02-18T06:35:49.864Z,41.53
2018-02-18T06:38:17.711Z,42.70
2018-02-18T06:40:45.348Z,41.07
2018-02-18T06:43:12.932Z,41.97
2018-02-18T06:45:40.817Z,42.30
2018-02-18T06:48:09.911Z,45.70
2018-02-18T06:50:37.477Z,43.27
2018-02-18T06:53:05.151Z,40.60
2018-02-18T06:55:33.763Z,42.93
2018-02-18T06:58:01.337Z,43.13
2018-02-18T07:00:29.239Z,42.37
2018-02-18T07:02:56.821Z,42.63
2018-02-18T07:05:25.162Z,45.37
2018-02-18T07:07:53.144Z,43.63
2018-02-18T07:10:20.726Z,40.53
2018-02-18T07:12:49.068Z,43.67
2018-02-18T07:15:16.691Z,41.13
2018-02-18T07:17:44.277Z,41.57
2018-02-18T07:20:11.882Z,39.93
2018-02-18T07:22:40.225Z,43.17
2018-02-18T07:25:08.246Z,41.73
2018-02-18T07:27:35.813Z,42.90
2018-02-18T07:30:03.377Z,40.43
2018-02-18T07:32:31.043Z,40.90
2018-02-18T07:34:58.614Z,39.33
2018-02-18T07:37:26.216Z,39.73
2018-02-18T07:39:54.158Z,40.40
2018-02-18T07:42:22.548Z,41.00
2018-02-18T07:44:50.117Z,41.27
2018-02-18T07:47:17.740Z,41.10
2018-02-18T07:49:45.379Z,40.20
2018-02-18T07:52:12.960Z,41.23
2018-02-18T07:54:41.069Z,40.63
2018-02-18T07:57:08.625Z,39.53
2018-02-18T07:59:36.236Z,40.43
2018-02-18T08:02:03.841Z,40.73
2018-02-18T08:04:31.447Z,40.27
2018-02-18T08:06:59.037Z,42.20
2018-02-18T08:09:26.750Z,42.73
2018-02-18T08:11:54.392Z,47.00
2018-02-18T08:14:22.769Z,44.90
2018-02-18T08:16:51.129Z,41.40
2018-02-18T08:19:18.718Z,51.93
2018-02-18T08:21:47.112Z,43.30
2018-02-18T08:24:14.795Z,36.73
2018-02-18T08:26:42.358Z,41.27
2018-02-18T08:29:10.357Z,39.97
2018-02-18T08:31:37.889Z,40.23
2018-02-18T08:34:05.453Z,42.20
2018-02-18T08:36:33.073Z,41.60
2018-02-18T08:39:00.649Z,40.93
2018-02-18T08:41:28.319Z,38.90
2018-02-18T08:43:55.928Z,36.20
2018-02-18T08:46:24.329Z,35.07
2018-02-18T08:48:51.920Z,35.83
2018-02-18T08:51:19.511Z,35.13
2018-02-18T08:53:47.129Z,38.50
2018-02-18T08:56:14.970Z,34.50
2018-02-18T08:58:43.309Z,35.77
2018-02-18T09:01:10.883Z,35.90
2018-02-18T09:03:39.282Z,33.10
2018-02-18T09:06:07.653Z,33.93
2018-02-18T09:08:36.020Z,31.00
2018-02-18T09:11:04.690Z,33.57
2018-02-18T09:13:32.257Z,32.57
2018-02-18T09:15:59.827Z,32.93
2018-02-18T09:18:28.213Z,31.93
2018-02-18T09:20:56.546Z,33.30
2018-02-18T09:23:24.144Z,31.73
2018-02-18T09:25:52.533Z,30.23
2018-02-18T09:28:20.140Z,31.13
2018-02-18T09:30:47.711Z,33.00
2018-02-18T09:33:15.318Z,30.83
2018-02-18T09:35:42.893Z,31.50
2018-02-18T09:38:10.474Z,34.07
2018-02-18T09:40:38.404Z,33.03
2018-02-18T09:43:05.943Z,30.50
2018-02-18T09:45:33.547Z,32.87
2018-02-18T09:48:01.419Z,32.90
2018-02-18T09:50:29.001Z,30.57
2018-02-18T09:52:56.624Z,32.27
2018-02-18T09:55:25.756Z,31.23
2018-02-18T09:57:53.411Z,33.60
2018-02-18T10:00:20.989Z,31.60
2018-02-18T10:02:48.658Z,31.10
2018-02-18T10:05:17.002Z,31.97
2018-02-18T10:07:44.572Z,29.30
2018-02-18T10:10:12.539Z,28.80
2018-02-18T10:12:40.965Z,30.23
2018-02-18T10:15:08.540Z,28.13
2018-02-18T10:17:36.138Z,29.00
2018-02-18T10:20:03.701Z,20.47
2018-02-18T10:22:31.287Z,24.67
2018-02-18T10:24:59.926Z,25.67
2018-02-18T10:27:27.503Z,26.60
2018-02-18T10:29:55.168Z,27.83
2018-02-18T10:32:23.015Z,24.13
2018-02-18T10:34:50.758Z,25.47
2018-02-18T10:37:18.333Z,27.37
2018-02-18T10:39:45.947Z,27.37
2018-02-18T10:42:13.591Z,25.43
2018-02-18T10:44:41.929Z,26.30
2018-02-18T10:47:09.540Z,25.53
2018-02-18T10:49:37.887Z,25.77
2018-02-18T10:52:05.442Z,24.40
2018-02-18T10:54:33.128Z,26.70
2018-02-18T10:57:01.488Z,22.90
2018-02-18T10:59:29.087Z,25.47
2018-02-18T11:01:56.761Z,24.23
2018-02-18T11:04:24.785Z,23.97
2018-02-18T11:06:52.348Z,25.10
2018-02-18T11:09:21.534Z,26.50
2018-02-18T11:11:50.598Z,26.13
2018-02-18T11:14:18.137Z,23.83
2018-02-18T11:16:45.744Z,22.97
2018-02-18T11:19:13.318Z,24.07
2018-02-18T11:21:41.652Z,24.03
2018-02-18T11:24:09.268Z,25.20
2018-02-18T11:26:37.633Z,24.37
2018-02-18T11:29:05.990Z,24.07
2018-02-18T11:31:33.623Z,24.87
2018-02-18T11:34:01.425Z,23.37
2018-02-18T11:36:30.512Z,24.63
2018-02-18T11:38:59.188Z,23.23
2018-02-18T11:41:26.754Z,23.43
2018-02-18T11:43:55.109Z,23.97
2018-02-18T11:46:22.722Z,23.00
2018-02-18T11:48:51.090Z,24.77
2018-02-18T11:51:19.439Z,23.10
2018-02-18T11:53:47.068Z,24.57
2018-02-18T11:56:14.649Z,21.90
2018-02-18T11:58:42.228Z,22.23
2018-02-18T12:01:10.889Z,23.37
2018-02-18T12:03:38.637Z,22.47
2018-02-18T12:06:06.210Z,23.20
2018-02-18T12:08:34.199Z,22.60
2018-02-18T12:11:01.755Z,24.40
2018-02-18T12:13:29.377Z,23.20
2018-02-18T12:15:57.277Z,19.33
2018-02-18T12:18:24.855Z,24.67
2018-02-18T12:20:53.212Z,24.00
2018-02-18T12:23:21.090Z,24.37
2018-02-18T12:25:50.187Z,23.20
2018-02-18T12:28:17.772Z,23.33
2018-02-18T12:30:45.711Z,24.97
2018-02-18T12:33:14.042Z,22.83
2018-02-18T12:35:41.616Z,23.97
2018-02-18T12:38:09.273Z,23.87
2018-02-18T12:40:36.856Z,23.77
2018-02-18T12:43:04.408Z,24.73
2018-02-18T12:45:32.004Z,22.20
2018-02-18T12:48:00.353Z,24.63
2018-02-18T12:50:27.932Z,25.13
2018-02-18T12:52:56.290Z,23.27
2018-02-18T12:55:25.422Z,22.70
2018-02-18T12:57:53.756Z,23.43
2018-02-18T13:00:21.395Z,23.40
2018-02-18T13:02:49.375Z,23.47
2018-02-18T13:05:17.006Z,22.87
2018-02-18T13:07:44.604Z,23.07
2018-02-18T13:10:12.211Z,24.63
2018-02-18T13:12:40.552Z,22.03
2018-02-18T13:15:08.407Z,21.53
2018-02-18T13:17:35.990Z,22.53
2018-02-18T13:20:05.040Z,20.03
2018-02-18T13:22:32.660Z,21.83
2018-02-18T13:25:00.243Z,22.70
2018-02-18T13:27:27.868Z,24.60
2018-02-18T13:29:57.357Z,24.03
2018-02-18T13:32:24.983Z,23.07
2018-02-18T13:34:52.589Z,24.47
2018-02-18T13:37:21.131Z,25.73
2018-02-18T13:39:48.680Z,25.40
2018-02-18T13:42:16.430Z,23.90
2018-02-18T13:44:44.302Z,22.97
2018-02-18T13:47:11.875Z,24.93
2018-02-18T13:49:39.451Z,23.60
2018-02-18T13:52:07.044Z,25.27
2018-02-18T13:54:35.360Z,24.60
2018-02-18T13:57:02.929Z,22.80
2018-02-18T13:59:30.914Z,24.47
2018-02-18T14:01:59.256Z,23.90
2018-02-18T14:04:26.841Z,23.53
2018-02-18T14:06:54.465Z,24.23
2018-02-18T14:09:22.037Z,22.57
2018-02-18T14:11:49.606Z,22.83
2018-02-18T14:14:17.224Z,23.20
2018-02-18T14:16:45.563Z,22.70
2018-02-18T14:19:13.636Z,24.37
2018-02-18T14:21:41.226Z,23.70
2018-02-18T14:24:09.583Z,24.07
2018-02-18T14:26:37.531Z,25.60
2018-02-18T14:29:05.142Z,24.33
2018-02-18T14:31:32.709Z,24.20
2018-02-18T14:34:00.331Z,24.50
2018-02-18T14:39:00.404Z,22.73
2018-02-18T14:41:39.921Z,24.03
2018-02-18T14:44:20.218Z,23.33
2018-02-18T14:46:59.716Z,23.70
2018-02-18T14:49:39.838Z,24.67
2018-02-18T14:52:19.281Z,24.20
2018-02-18T14:55:09.379Z,23.13
2018-02-18T14:57:37.716Z,24.60
2018-02-18T15:00:05.292Z,24.47
2018-02-18T15:02:32.892Z,22.60
2018-02-18T15:05:01.280Z,25.50
2018-02-18T15:07:28.869Z,24.53
2018-02-18T15:09:56.497Z,23.90
2018-02-18T15:12:24.088Z,24.63
2018-02-18T15:14:51.666Z,24.90
2018-02-18T15:17:19.265Z,24.90
2018-02-18T15:19:47.584Z,25.23
2018-02-18T15:22:15.137Z,24.80
2018-02-18T15:24:42.744Z,25.27
2018-02-18T15:27:10.314Z,24.10
2018-02-18T15:29:38.657Z,23.93
2018-02-18T15:32:06.266Z,26.23
2018-02-18T15:34:33.881Z,26.10
2018-02-18T15:37:01.455Z,26.03
2018-02-18T15:39:29.959Z,25.97
2018-02-18T15:41:57.541Z,22.80
2018-02-18T15:44:25.110Z,23.03
2018-02-18T15:46:53.013Z,23.53
2018-02-18T15:49:22.166Z,23.60
2018-02-18T15:51:49.738Z,25.33
2018-02-18T15:54:17.620Z,24.50
2018-02-18T15:56:45.171Z,24.20
2018-02-18T15:59:12.771Z,24.20
2018-02-18T16:01:41.429Z,25.17
2018-02-18T16:04:09.160Z,25.53
2018-02-18T16:06:36.745Z,24.90
2018-02-18T16:09:04.622Z,25.00
2018-02-18T16:11:32.225Z,24.87
2018-02-18T16:13:59.800Z,24.30
2018-02-18T16:16:27.395Z,25.50
2018-02-18T16:18:55.021Z,23.77
2018-02-18T16:21:22.604Z,25.37
2018-02-18T16:23:50.214Z,27.10
2018-02-18T16:26:18.557Z,26.03
2018-02-18T16:28:46.148Z,27.03
2018-02-18T16:31:14.804Z,27.13
2018-02-18T16:33:43.135Z,25.80
2018-02-18T16:36:11.236Z,26.80
2018-02-18T16:38:39.113Z,26.80
2018-02-18T16:41:08.261Z,26.57
2018-02-18T16:43:35.929Z,28.77
2018-02-18T16:46:03.531Z,30.03
2018-02-18T16:48:31.920Z,29.30
2018-02-18T16:50:59.560Z,32.77
2018-02-18T16:53:27.091Z,31.57
2018-02-18T16:55:54.696Z,30.50
2018-02-18T16:58:22.267Z,30.47
2018-02-18T17:00:50.681Z,30.70
2018-02-18T17:03:18.579Z,30.00
2018-02-18T17:05:46.927Z,30.03
2018-02-18T17:08:14.505Z,27.60
2018-02-18T17:10:42.126Z,29.20
2018-02-18T17:13:09.696Z,29.37
2018-02-18T17:15:37.315Z,28.97
2018-02-18T17:18:06.183Z,31.03
2018-02-18T17:20:35.304Z,31.00
2018-02-18T17:23:03.645Z,29.67
2018-02-18T17:25:31.361Z,30.97
2018-02-18T17:27:58.988Z,31.67
2018-02-18T17:30:26.558Z,30.70
2018-02-18T17:32:55.936Z,32.17
2018-02-18T17:35:23.502Z,30.60
2018-02-18T17:37:51.094Z,31.20
2018-02-18T17:40:19.472Z,33.10
2018-02-18T17:42:47.829Z,32.83
2018-02-18T17:45:15.422Z,32.33
2018-02-18T17:47:43.050Z,32.83
2018-02-18T17:50:11.394Z,33.20
2018-02-18T17:52:38.982Z,33.20
2018-02-18T17:55:08.095Z,34.53
2018-02-18T17:57:36.914Z,33.30
2018-02-18T18:00:04.477Z,34.27
2018-02-18T18:02:32.113Z,35.70
2018-02-18T18:05:00.454Z,35.73
2018-02-18T18:07:28.055Z,33.63
2018-02-18T18:09:55.664Z,32.90
2018-02-18T18:12:23.231Z,33.20
2018-02-18T18:14:50.842Z,32.80
2018-02-18T18:17:19.988Z,34.27
2018-02-18T18:19:47.653Z,33.30
2018-02-18T18:22:15.257Z,35.07
2018-02-18T18:24:42.915Z,33.50
2018-02-18T18:27:10.489Z,36.50
2018-02-18T18:29:38.161Z,34.40
2018-02-18T18:32:05.792Z,37.30
2018-02-18T18:34:33.438Z,35.80
2018-02-18T18:37:01.776Z,37.23
2018-02-18T18:39:29.426Z,39.40
2018-02-18T18:41:57.106Z,36.30
2018-02-18T18:44:24.708Z,36.97
2018-02-18T18:46:52.285Z,35.20
2018-02-18T18:49:19.913Z,36.00
2018-02-18T18:51:48.252Z,36.53
2018-02-18T18:54:16.719Z,36.23
2018-02-18T18:56:44.605Z,36.80
2018-02-18T18:59:13.061Z,37.17
2018-02-18T19:01:40.796Z,38.30
2018-02-18T19:04:08.519Z,37.10
2018-02-18T19:06:36.495Z,37.47
2018-02-18T19:09:04.848Z,38.17
2018-02-18T19:11:32.424Z,37.13
2018-02-18T19:14:00.503Z,37.00
2018-02-18T19:16:28.921Z,37.37
2018-02-18T19:18:56.488Z,37.57
2018-02-18T19:21:24.089Z,37.83
2018-02-18T19:23:51.691Z,35.87
2018-02-18T19:26:19.241Z,37.73
2018-02-18T19:28:47.996Z,40.70
2018-02-18T19:31:15.572Z,42.17
2018-02-18T19:33:43.917Z,43.90
2018-02-18T19:36:11.812Z,46.03
2018-02-18T19:38:40.155Z,41.70
2018-02-18T19:41:07.766Z,42.47
2018-02-18T19:43:36.170Z,42.07
2018-02-18T19:46:03.751Z,38.10
2018-02-18T19:48:31.341Z,40.27
2018-02-18T19:50:59.720Z,38.67
2018-02-18T19:53:28.391Z,41.37
2018-02-18T19:55:55.968Z,41.93
2018-02-18T19:58:24.646Z,40.13
2018-02-18T20:00:52.254Z,43.43
2018-02-18T20:03:19.830Z,41.30
2018-02-18T20:05:47.729Z,41.87
2018-02-18T20:08:15.291Z,42.50
2018-02-18T20:10:43.212Z,42.53
2018-02-18T20:13:10.950Z,40.13
2018-02-18T20:15:38.538Z,37.27
2018-02-18T20:18:06.117Z,36.77
2018-02-18T20:20:33.986Z,39.20
2018-02-18T20:23:01.881Z,40.60
2018-02-18T20:25:30.779Z,38.00
2018-02-18T20:27:59.164Z,39.20
2018-02-18T20:30:26.852Z,37.73
2018-02-18T20:32:54.416Z,38.57
2018-02-18T20:35:22.038Z,40.63
2018-02-18T20:37:50.374Z,39.33
2018-02-18T20:40:18.007Z,39.37
2018-02-18T20:42:45.587Z,43.20
2018-02-18T20:45:13.201Z,41.07
2018-02-18T20:47:41.525Z,40.90
2018-02-18T20:50:09.110Z,41.23
2018-02-18T20:52:37.057Z,42.03
2018-02-18T20:55:04.612Z,41.40
2018-02-18T20:57:32.195Z,39.87
2018-02-18T20:59:59.803Z,40.73
2018-02-18T21:02:27.517Z,40.37
2018-02-18T21:04:55.092Z,39.20
2018-02-18T21:07:23.504Z,40.80
2018-02-18T21:09:51.059Z,39.87
2018-02-18T21:12:18.633Z,38.97
2018-02-18T21:14:46.234Z,39.70
2018-02-18T21:17:13.858Z,41.00
2018-02-18T21:19:41.441Z,39.60
2018-02-18T21:22:10.535Z,39.13
2018-02-18T21:24:38.152Z,38.63
2018-02-18T21:27:05.737Z,37.90
2018-02-18T21:29:33.317Z,38.77
2018-02-18T21:32:01.282Z,37.47
2018-02-18T21:34:28.901Z,37.00
2018-02-18T21:36:56.561Z,38.70
2018-02-18T21:39:24.454Z,40.03
2018-02-18T21:41:52.018Z,40.23
2018-02-18T21:44:19.601Z,40.93
2018-02-18T21:46:48.230Z,41.00
2018-02-18T21:49:15.795Z,42.70
2018-02-18T21:51:43.373Z,43.00
2018-02-18T21:54:10.981Z,42.60
2018-02-18T21:56:38.584Z,39.73
2018-02-18T21:59:06.158Z,42.10
2018-02-18T22:01:34.754Z,39.97
2018-02-18T22:04:02.321Z,39.00
2018-02-18T22:06:30.801Z,39.63
2018-02-18T22:08:59.512Z,39.37
2018-02-18T22:11:27.095Z,41.17
2018-02-18T22:13:54.671Z,38.93
2018-02-18T22:16:22.290Z,39.87
2018-02-18T22:18:49.894Z,39.13
2018-02-18T22:21:17.459Z,39.43
2018-02-18T22:23:45.538Z,39.73
2018-02-18T22:26:13.132Z,40.50
2018-02-18T22:28:41.528Z,39.67
2018-02-18T22:31:09.117Z,41.03
2018-02-18T22:33:36.717Z,39.23
2018-02-18T22:36:05.086Z,39.87
2018-02-18T22:38:32.650Z,40.93
2018-02-18T22:41:00.273Z,40.77
2018-02-18T22:43:27.852Z,40.40
2018-02-18T22:45:55.440Z,40.30
2018-02-18T22:48:23.806Z,40.90
2018-02-18T22:50:51.395Z,40.13
2018-02-18T22:53:18.992Z,40.30
2018-02-18T22:55:46.573Z,40.50
2018-02-18T22:58:14.150Z,37.73
2018-02-18T23:00:42.580Z,38.90
2018-02-18T23:03:10.144Z,38.30
2018-02-18T23:05:43.460Z,38.40
2018-02-18T23:08:11.401Z,39.63
2018-02-18T23:10:39.043Z,38.33
2018-02-18T23:13:06.609Z,36.90
2018-02-18T23:15:34.397Z,39.37
2018-02-18T23:18:01.965Z,36.30
2018-02-18T23:20:42.816Z,38.50
2018-02-18T23:23:10.404Z,36.77
2018-02-18T23:25:37.979Z,38.43
2018-02-18T23:28:06.622Z,36.83
2018-02-18T23:30:35.389Z,37.40
2018-02-18T23:33:02.958Z,38.83
2018-02-18T23:35:30.847Z,36.93
2018-02-18T23:37:58.409Z,37.80
2018-02-18T23:40:25.989Z,36.60
2018-02-18T23:42:54.406Z,36.80
2018-02-18T23:45:22.066Z,36.13
2018-02-18T23:47:49.876Z,36.40
2018-02-18T23:50:19.254Z,38.27
2018-02-18T23:52:46.842Z,36.97
2018-02-18T23:55:14.603Z,37.23
2018-02-18T23:57:42.166Z,36.60
